Time;durP1;ratioP1;P1;durP2;ratioP2;P2;SDS_P1;SDS_P2;PMS_P1;PMS_P2;Temp;Humidity;BMP_temperature;BMP_pressure;BME280_temperature;BME280_humidity;BME280_pressure;Samples;Min_cycle;Max_cycle;Signal;HPM_P1;HPM_P2
2022/11/04 16:32:11;;;;;;;0.20;0.20;;;14.00;99.90;;;;;;5122357;27;20435;-45
2022/11/04 16:34:37;;;;;;;0.25;0.25;;;13.90;99.90;;;;;;5108558;28;20066;-50
2022/11/04 16:37:03;;;;;;;0.20;0.20;;;13.70;99.90;;;;;;5108643;28;20107;-47
2022/11/04 16:39:29;;;;;;;0.20;0.20;;;13.60;99.90;;;;;;5108700;28;20111;-48
2022/11/04 16:41:55;;;;;;;0.20;0.20;;;13.50;99.90;;;;;;5108742;28;20460;-50
2022/11/04 16:44:22;;;;;;;0.20;0.20;;;13.30;99.90;;;;;;5107795;28;20035;-45
2022/11/04 16:46:48;;;;;;;0.20;0.20;;;13.20;99.90;;;;;;5101918;28;20025;-45
2022/11/04 16:49:17;;;;;;;1.25;0.60;;;13.10;99.90;;;;;;5085113;28;20346;-47
2022/11/04 16:51:43;;;;;;;0.40;0.40;;;13.00;99.90;;;;;;5087007;28;20443;-45
2022/11/04 16:54:09;;;;;;;0.20;0.20;;;12.80;99.90;;;;;;5070442;28;20037;-48
2022/11/04 16:56:37;;;;;;;0.38;0.38;;;12.70;99.90;;;;;;5086683;28;20035;-46
2022/11/04 16:59:03;;;;;;;0.77;0.77;;;12.60;99.90;;;;;;5088043;28;20129;-46
2022/11/04 17:01:29;;;;;;;2.60;2.40;;;12.50;99.90;;;;;;5087702;28;20093;-44
2022/11/04 17:03:54;;;;;;;0.80;0.80;;;12.40;99.90;;;;;;5087799;28;20028;-46
2022/11/04 17:06:20;;;;;;;1.00;0.82;;;12.40;99.90;;;;;;5087591;28;20476;-44
2022/11/04 17:08:46;;;;;;;8.52;1.15;;;12.30;99.90;;;;;;5087998;28;20036;-42
2022/11/04 17:11:12;;;;;;;0.50;0.50;;;12.20;99.90;;;;;;5087696;28;20472;-45
2022/11/04 17:13:38;;;;;;;0.28;0.28;;;12.10;99.90;;;;;;5086826;28;20052;-47
2022/11/04 17:16:05;;;;;;;0.30;0.30;;;12.00;99.90;;;;;;5086041;28;20480;-46
2022/11/04 17:18:33;;;;;;;0.82;0.82;;;11.90;99.90;;;;;;5086369;28;20032;-46
2022/11/04 17:21:01;;;;;;;1.13;1.08;;;11.80;99.90;;;;;;5087775;28;20033;-44
2022/11/04 17:23:27;;;;;;;2.55;0.93;;;11.80;99.90;;;;;;5086248;28;20028;-47
2022/11/04 17:25:52;;;;;;;0.30;0.30;;;11.80;99.90;;;;;;5086129;28;20035;-45
2022/11/04 17:28:18;;;;;;;0.30;0.30;;;11.80;99.90;;;;;;5087441;28;20020;-49
2022/11/04 17:30:44;;;;;;;0.57;0.57;;;11.70;99.90;;;;;;5087081;28;20047;-49
2022/11/04 17:33:15;;;;;;;1.80;1.70;;;11.60;99.90;;;;;;5086898;28;20488;-44
2022/11/04 17:35:43;;;;;;;0.30;0.30;;;11.50;99.90;;;;;;5087521;28;20483;-48
2022/11/04 17:38:10;;;;;;;1.27;0.43;;;11.40;99.90;;;;;;5087746;28;20032;-44
2022/11/04 17:43:58;;;;;;;0.40;0.40;;;11.40;99.90;;;;;;5087311;28;20032;-44
2022/11/04 17:48:51;;;;;;;0.57;0.57;;;11.50;99.90;;;;;;5073180;28;20067;-47
2022/11/04 17:51:17;;;;;;;0.40;0.40;;;11.50;99.90;;;;;;5072883;28;20594;-48
2022/11/04 17:53:42;;;;;;;0.45;0.45;;;11.50;99.90;;;;;;5073857;28;20020;-46
2022/11/04 17:56:20;;;;;;;0.20;0.20;;;11.50;99.90;;;;;;5072965;28;20392;-45
2022/11/04 17:58:47;;;;;;;0.30;0.30;;;11.40;99.90;;;;;;5061629;28;20024;-48
2022/11/04 18:01:16;;;;;;;1.85;1.75;;;11.30;99.90;;;;;;5073668;28;20027;-46
2022/11/04 18:03:42;;;;;;;0.30;0.30;;;11.30;99.90;;;;;;5072012;28;20100;-43
2022/11/04 18:06:11;;;;;;;0.30;0.30;;;11.40;99.90;;;;;;5072891;28;20093;-45
2022/11/04 18:08:37;;;;;;;0.55;0.55;;;11.40;99.90;;;;;;5073533;28;20028;-45
2022/11/04 18:11:06;;;;;;;0.50;0.50;;;11.30;99.90;;;;;;5073554;28;20110;-47
2022/11/04 18:13:32;;;;;;;0.60;0.60;;;11.30;99.90;;;;;;5072752;28;20472;-45
2022/11/04 18:16:11;;;;;;;0.73;0.73;;;11.20;99.90;;;;;;5073485;28;20025;-43
2022/11/04 18:18:37;;;;;;;0.40;0.40;;;11.10;99.90;;;;;;5073031;28;20477;-48
2022/11/04 18:21:04;;;;;;;0.20;0.20;;;11.00;99.90;;;;;;5072016;28;20037;-47
2022/11/04 18:23:29;;;;;;;0.45;0.45;;;11.00;99.90;;;;;;5070652;28;20029;-44
2022/11/04 18:25:55;;;;;;;1.85;1.38;;;11.00;99.90;;;;;;5072832;28;20039;-47
2022/11/04 18:28:21;;;;;;;0.50;0.50;;;11.00;99.90;;;;;;5072839;28;20470;-46
2022/11/04 18:30:47;;;;;;;1.45;0.68;;;10.90;99.90;;;;;;5072390;28;20124;-45
2022/11/04 18:33:13;;;;;;;0.30;0.30;;;10.80;99.90;;;;;;5072987;28;20119;-45
2022/11/04 18:35:38;;;;;;;0.30;0.30;;;10.90;99.90;;;;;;5072583;28;20112;-50
2022/11/04 18:38:04;;;;;;;0.40;0.40;;;11.40;99.90;;;;;;5072942;28;20389;-46
2022/11/04 18:40:30;;;;;;;0.30;0.30;;;11.40;99.90;;;;;;5072723;28;20036;-44
2022/11/04 18:42:55;;;;;;;0.30;0.30;;;11.30;99.90;;;;;;5071411;28;20032;-42
2022/11/04 18:45:22;;;;;;;0.22;0.22;;;11.30;99.90;;;;;;5072388;28;20024;-48
2022/11/04 18:47:47;;;;;;;0.82;0.82;;;11.30;99.90;;;;;;5072061;28;20031;-45
2022/11/04 18:50:13;;;;;;;2.05;0.90;;;11.30;99.90;;;;;;5068653;28;20044;-47
2022/11/04 18:52:39;;;;;;;0.40;0.40;;;11.40;99.90;;;;;;5068898;28;20167;-45
2022/11/04 18:55:06;;;;;;;0.65;0.65;;;11.40;99.90;;;;;;5062206;28;20036;-50
2022/11/04 18:57:32;;;;;;;0.60;0.60;;;11.50;99.90;;;;;;5066925;28;20025;-47
2022/11/04 18:59:57;;;;;;;1.35;1.20;;;11.40;99.90;;;;;;5068473;28;20082;-45
2022/11/04 19:02:25;;;;;;;0.40;0.40;;;11.40;99.90;;;;;;5070609;28;20036;-47
2022/11/04 19:04:51;;;;;;;1.13;0.93;;;11.40;99.90;;;;;;5070665;28;20027;-47
2022/11/04 19:07:17;;;;;;;0.93;0.70;;;11.40;99.90;;;;;;5071402;28;20078;-48
2022/11/04 19:09:43;;;;;;;0.22;0.22;;;11.30;99.90;;;;;;5071928;28;20108;-43
2022/11/04 19:14:53;;;;;;;0.30;0.30;;;11.30;99.90;;;;;;5071010;28;20074;-46
2022/11/04 19:17:20;;;;;;;3.78;3.50;;;11.20;99.90;;;;;;5071824;28;20032;-50
2022/11/04 19:19:46;;;;;;;2.40;2.20;;;11.10;99.90;;;;;;5071556;28;20048;-44
2022/11/04 19:22:12;;;;;;;2.05;1.95;;;11.00;99.90;;;;;;5069363;28;20104;-45
2022/11/04 19:24:38;;;;;;;4.07;2.15;;;10.90;99.90;;;;;;5071059;28;20043;-42
2022/11/04 19:27:04;;;;;;;2.05;1.23;;;10.80;99.90;;;;;;5068259;28;20032;-44
2022/11/04 19:29:31;;;;;;;0.40;0.40;;;10.80;99.90;;;;;;5071609;28;20380;-43
2022/11/04 19:31:57;;;;;;;0.63;0.63;;;10.80;99.90;;;;;;5070848;28;20032;-50
2022/11/04 19:34:23;;;;;;;0.25;0.25;;;10.80;99.90;;;;;;5069701;28;20522;-46
2022/11/04 19:36:49;;;;;;;0.40;0.40;;;10.90;99.90;;;;;;5070451;28;20387;-48
2022/11/04 19:39:15;;;;;;;0.30;0.30;;;10.90;99.90;;;;;;5071750;28;20082;-44
2022/11/04 19:44:25;;;;;;;0.43;0.43;;;10.80;99.90;;;;;;5069568;28;20028;-45
2022/11/04 19:46:50;;;;;;;0.52;0.52;;;10.70;99.90;;;;;;5069529;28;20032;-45
2022/11/04 19:49:17;;;;;;;0.40;0.40;;;10.70;99.90;;;;;;5070577;28;20024;-46
2022/11/04 19:51:42;;;;;;;0.20;0.20;;;10.70;99.90;;;;;;5068786;28;20036;-49
2022/11/04 19:54:09;;;;;;;0.40;0.40;;;10.70;99.90;;;;;;5069799;28;20107;-47
2022/11/04 19:56:36;;;;;;;0.30;0.30;;;10.70;99.90;;;;;;5068705;28;20157;-50
2022/11/04 19:59:08;;;;;;;0.55;0.55;;;10.60;99.90;;;;;;5065802;28;20032;-46
2022/11/04 20:01:35;;;;;;;0.63;0.63;;;10.60;99.90;;;;;;5068316;28;20480;-44
2022/11/04 20:04:02;;;;;;;0.65;0.60;;;10.50;99.90;;;;;;5069430;28;20036;-43
2022/11/04 20:06:28;;;;;;;2.97;2.28;;;10.50;99.90;;;;;;5071121;28;20035;-43
2022/11/04 20:08:54;;;;;;;0.40;0.40;;;10.40;99.90;;;;;;5064795;28;20488;-48
2022/11/04 20:11:19;;;;;;;0.47;0.47;;;10.30;99.90;;;;;;5069102;28;20089;-44
2022/11/04 20:13:47;;;;;;;0.50;0.50;;;10.30;99.90;;;;;;5070142;28;20103;-43
2022/11/04 20:16:17;;;;;;;1.30;1.10;;;10.20;99.90;;;;;;5070644;28;20107;-41
2022/11/04 20:18:44;;;;;;;0.50;0.50;;;10.20;99.90;;;;;;5070879;28;20016;-41
2022/11/04 20:21:11;;;;;;;0.40;0.40;;;10.20;99.90;;;;;;5069014;28;20033;-46
2022/11/04 20:23:36;;;;;;;0.60;0.60;;;10.20;99.90;;;;;;5070907;28;20028;-48
2022/11/04 20:26:11;;;;;;;0.57;0.57;;;10.30;99.90;;;;;;5058182;28;20029;-45
2022/11/04 20:28:39;;;;;;;0.75;0.75;;;10.20;99.90;;;;;;5057945;28;20070;-46
2022/11/04 20:31:18;;;;;;;0.30;0.30;;;10.20;99.90;;;;;;5069008;28;20052;-42
2022/11/04 20:33:45;;;;;;;0.28;0.28;;;10.30;99.90;;;;;;5069470;28;20123;-45
2022/11/04 20:36:12;;;;;;;0.50;0.50;;;10.30;99.90;;;;;;5071066;28;20388;-41
2022/11/04 20:38:38;;;;;;;1.35;1.25;;;10.40;99.90;;;;;;5069775;28;20028;-43
2022/11/04 20:41:06;;;;;;;0.57;0.57;;;10.40;99.90;;;;;;5070914;28;20031;-46
2022/11/04 20:43:34;;;;;;;0.38;0.38;;;10.50;99.90;;;;;;5053870;28;20021;-46
2022/11/04 20:46:05;;;;;;;0.20;0.20;;;10.50;99.90;;;;;;5066762;28;20067;-46
2022/11/04 20:48:31;;;;;;;0.30;0.30;;;10.50;99.90;;;;;;5071121;28;20533;-46
2022/11/04 20:50:56;;;;;;;0.40;0.40;;;10.60;99.90;;;;;;5070772;28;20136;-43
2022/11/04 20:53:22;;;;;;;0.50;0.50;;;10.70;99.90;;;;;;5070087;28;20794;-41
2022/11/04 20:55:48;;;;;;;0.65;0.65;;;10.70;99.90;;;;;;5068603;28;20262;-41
2022/11/04 20:58:14;;;;;;;0.70;0.70;;;10.70;99.90;;;;;;5070385;28;20047;-43
2022/11/04 21:00:39;;;;;;;0.52;0.52;;;11.00;99.90;;;;;;5052059;28;20025;-45
2022/11/04 21:03:05;;;;;;;1.15;1.15;;;10.90;99.90;;;;;;5048806;28;20026;-44
2022/11/04 21:05:32;;;;;;;7.13;1.40;;;10.80;99.90;;;;;;5066803;28;20396;-44
2022/11/04 21:07:59;;;;;;;0.30;0.30;;;10.80;99.90;;;;;;5070389;28;20055;-43
2022/11/04 21:10:26;;;;;;;1.23;1.20;;;10.80;99.90;;;;;;5068377;28;20035;-42
2022/11/04 21:12:52;;;;;;;0.60;0.60;;;10.80;99.90;;;;;;5071528;28;20036;-42
2022/11/04 21:18:03;;;;;;;0.30;0.30;;;10.90;99.90;;;;;;5070062;28;20621;-45
2022/11/04 21:20:28;;;;;;;0.40;0.40;;;10.80;99.90;;;;;;5062621;28;20024;-45
2022/11/04 21:22:54;;;;;;;0.40;0.40;;;10.80;99.90;;;;;;5073310;28;20036;-43
2022/11/04 21:25:21;;;;;;;0.77;0.77;;;10.70;99.90;;;;;;5072411;28;20029;-43
2022/11/04 21:27:47;;;;;;;0.20;0.20;;;10.60;99.90;;;;;;5074096;28;20616;-48
2022/11/04 21:30:13;;;;;;;0.43;0.43;;;10.50;99.90;;;;;;5072898;28;20060;-45
2022/11/04 21:32:39;;;;;;;3.90;2.00;;;10.50;99.90;;;;;;5054706;28;20025;-44
2022/11/04 21:35:05;;;;;;;0.30;0.30;;;10.40;99.90;;;;;;5061276;28;20031;-43
2022/11/04 21:37:32;;;;;;;0.60;0.60;;;10.40;99.90;;;;;;5073340;28;20400;-44
2022/11/04 21:39:57;;;;;;;0.63;0.63;;;10.20;99.90;;;;;;5074140;28;20032;-42
2022/11/04 21:42:24;;;;;;;3.22;2.95;;;10.10;99.90;;;;;;5074210;28;20022;-44
2022/11/04 21:44:50;;;;;;;0.30;0.30;;;10.10;99.90;;;;;;5072599;28;20064;-42
2022/11/04 21:47:16;;;;;;;0.22;0.22;;;10.20;99.90;;;;;;5070745;28;20024;-47
2022/11/04 21:49:41;;;;;;;0.30;0.30;;;10.10;99.90;;;;;;5070984;28;20464;-47
2022/11/04 21:52:07;;;;;;;0.30;0.30;;;10.10;99.90;;;;;;5053864;28;20492;-44
2022/11/04 21:54:33;;;;;;;0.22;0.22;;;10.10;99.90;;;;;;5056469;28;20036;-43
2022/11/04 21:56:58;;;;;;;0.40;0.40;;;10.10;99.90;;;;;;5071109;28;20473;-46
2022/11/04 21:59:24;;;;;;;1.10;1.00;;;10.10;99.90;;;;;;5072262;28;20031;-47
2022/11/04 22:01:50;;;;;;;0.20;0.20;;;10.20;99.90;;;;;;5071905;28;20074;-47
2022/11/04 22:04:15;;;;;;;0.20;0.20;;;10.10;99.90;;;;;;5072468;28;20059;-44
2022/11/04 22:06:41;;;;;;;0.30;0.30;;;10.10;99.90;;;;;;5072300;28;20489;-49
2022/11/04 22:09:08;;;;;;;0.30;0.30;;;10.00;99.90;;;;;;5073590;28;20024;-47
2022/11/04 22:11:38;;;;;;;0.32;0.32;;;10.00;99.90;;;;;;5073457;28;20443;-45
2022/11/04 22:14:06;;;;;;;0.43;0.43;;;9.90;99.90;;;;;;5072295;28;20515;-47
2022/11/04 22:16:35;;;;;;;0.30;0.30;;;10.00;99.90;;;;;;5073376;28;20431;-47
2022/11/04 22:19:03;;;;;;;0.20;0.20;;;10.00;99.90;;;;;;5073632;28;20476;-46
2022/11/04 22:21:29;;;;;;;0.22;0.22;;;9.90;99.90;;;;;;5073562;28;20025;-47
2022/11/04 22:23:56;;;;;;;0.22;0.22;;;9.90;99.90;;;;;;5055485;28;20033;-47
2022/11/04 22:26:30;;;;;;;0.85;0.85;;;9.90;99.90;;;;;;5071834;28;20048;-44
2022/11/04 22:28:57;;;;;;;0.30;0.30;;;9.80;99.90;;;;;;5073269;28;20086;-49
2022/11/04 22:31:28;;;;;;;1.25;1.25;;;9.70;99.90;;;;;;5071813;28;20548;-45
2022/11/04 22:33:54;;;;;;;0.30;0.30;;;9.60;99.90;;;;;;5073056;28;20032;-46
2022/11/04 22:36:21;;;;;;;0.32;0.32;;;9.50;99.90;;;;;;5072995;28;20032;-46
2022/11/04 22:38:47;;;;;;;0.40;0.40;;;9.40;99.90;;;;;;5072900;28;20025;-46
2022/11/04 22:41:18;;;;;;;1.05;1.05;;;9.30;99.90;;;;;;5072969;28;20039;-43
2022/11/04 22:43:43;;;;;;;0.55;0.55;;;9.20;99.90;;;;;;5071221;28;20077;-42
2022/11/04 22:46:21;;;;;;;0.20;0.20;;;9.20;99.90;;;;;;5072682;28;20029;-47
2022/11/04 22:48:47;;;;;;;1.08;1.08;;;9.20;99.90;;;;;;5071134;28;20029;-47
2022/11/04 22:51:13;;;;;;;0.60;0.60;;;9.40;99.90;;;;;;5072867;28;20060;-45
2022/11/04 22:53:40;;;;;;;0.22;0.22;;;9.50;99.90;;;;;;5072669;28;20025;-47
2022/11/04 22:56:08;;;;;;;0.30;0.30;;;9.40;99.90;;;;;;5072829;28;20481;-44
2022/11/04 22:58:34;;;;;;;0.50;0.50;;;9.40;99.90;;;;;;5072540;28;20103;-43
2022/11/04 23:01:04;;;;;;;0.30;0.30;;;9.40;99.90;;;;;;5069702;28;20086;-45
2022/11/04 23:03:30;;;;;;;0.57;0.35;;;9.40;99.90;;;;;;5071259;28;20021;-44
2022/11/04 23:05:58;;;;;;;0.20;0.20;;;9.40;99.90;;;;;;5072288;28;20028;-43
2022/11/04 23:08:25;;;;;;;0.47;0.47;;;9.50;99.90;;;;;;5072218;28;20505;-49
2022/11/04 23:19:19;;;;;;;0.95;0.95;;;9.90;99.90;;;;;;5070337;28;20052;-41
2022/11/04 23:30:19;;;;;;;0.38;0.38;;;10.00;99.90;;;;;;5072253;28;20058;-44
2022/11/04 23:32:48;;;;;;;0.30;0.30;;;10.00;99.90;;;;;;5072026;28;20447;-46
2022/11/04 23:37:58;;;;;;;0.22;0.22;;;10.10;99.90;;;;;;5071502;28;20086;-45
2022/11/04 23:40:26;;;;;;;1.05;1.05;;;10.10;99.90;;;;;;5071186;28;20500;-42
2022/11/04 23:42:52;;;;;;;0.98;0.95;;;10.00;99.90;;;;;;5071864;28;20423;-42
